sensor_id;sensor_type;location;lat;lon;timestamp;temperature;humidity
22192;DHT22;11261;52.456;10.850;2023-04-29T00:00:28;12.60;99.90
22192;DHT22;11261;52.456;10.850;2023-04-29T00:02:58;12.50;99.90
22192;DHT22;11261;52.456;10.850;2023-04-29T00:05:28;12.60;99.90
22192;DHT22;11261;52.456;10.850;2023-04-29T00:07:56;12.50;99.90
22192;DHT22;11261;52.456;10.850;2023-04-29T00:10:25;12.50;99.90
22192;DHT22;11261;52.456;10.850;2023-04-29T00:12:53;12.50;99.90
22192;DHT22;11261;52.456;10.850;2023-04-29T00:15:22;12.60;99.90
22192;DHT22;11261;52.456;10.850;2023-04-29T00:17:50;12.50;99.90
22192;DHT22;11261;52.456;10.850;2023-04-29T00:20:20;12.60;99.90
22192;DHT22;11261;52.456;10.850;2023-04-29T00:22:48;12.60;99.90
22192;DHT22;11261;52.456;10.850;2023-04-29T00:25:17;12.60;99.90
22192;DHT22;11261;52.456;10.850;2023-04-29T00:27:45;12.50;99.90
22192;DHT22;11261;52.456;10.850;2023-04-29T00:30:14;12.50;99.90
22192;DHT22;11261;52.456;10.850;2023-04-29T00:32:42;12.50;99.90
22192;DHT22;11261;52.456;10.850;2023-04-29T00:35:12;12.50;99.90
22192;DHT22;11261;52.456;10.850;2023-04-29T00:37:42;12.50;99.90
22192;DHT22;11261;52.456;10.850;2023-04-29T00:40:11;12.50;99.90
22192;DHT22;11261;52.456;10.850;2023-04-29T00:42:41;12.50;99.90
22192;DHT22;11261;52.456;10.850;2023-04-29T00:45:10;12.50;99.90
22192;DHT22;11261;52.456;10.850;2023-04-29T00:47:38;12.50;99.90
22192;DHT22;11261;52.456;10.850;2023-04-29T00:50:08;12.50;99.90
22192;DHT22;11261;52.456;10.850;2023-04-29T00:52:37;12.60;99.90
22192;DHT22;11261;52.456;10.850;2023-04-29T00:55:07;12.60;99.90
22192;DHT22;11261;52.456;10.850;2023-04-29T00:57:36;12.60;99.90
22192;DHT22;11261;52.456;10.850;2023-04-29T01:00:06;12.60;99.90
22192;DHT22;11261;52.456;10.850;2023-04-29T01:02:36;12.60;99.90
22192;DHT22;11261;52.456;10.850;2023-04-29T01:05:05;12.60;99.90
22192;DHT22;11261;52.456;10.850;2023-04-29T01:07:41;12.50;99.90
22192;DHT22;11261;52.456;10.850;2023-04-29T01:10:17;12.50;99.90
22192;DHT22;11261;52.456;10.850;2023-04-29T01:12:52;12.50;99.90
22192;DHT22;11261;52.456;10.850;2023-04-29T01:15:24;12.50;99.90
22192;DHT22;11261;52.456;10.850;2023-04-29T01:17:56;12.50;99.90
22192;DHT22;11261;52.456;10.850;2023-04-29T01:20:26;12.50;99.90
22192;DHT22;11261;52.456;10.850;2023-04-29T01:22:55;12.50;99.90
22192;DHT22;11261;52.456;10.850;2023-04-29T01:25:25;12.50;99.90
22192;DHT22;11261;52.456;10.850;2023-04-29T01:28:01;12.50;99.90
22192;DHT22;11261;52.456;10.850;2023-04-29T01:30:41;12.50;99.90
22192;DHT22;11261;52.456;10.850;2023-04-29T01:33:18;12.50;99.90
22192;DHT22;11261;52.456;10.850;2023-04-29T01:35:59;12.50;99.90
22192;DHT22;11261;52.456;10.850;2023-04-29T01:38:36;12.50;99.90
22192;DHT22;11261;52.456;10.850;2023-04-29T01:41:15;12.40;99.90
22192;DHT22;11261;52.456;10.850;2023-04-29T01:43:47;12.50;99.90
22192;DHT22;11261;52.456;10.850;2023-04-29T01:46:17;12.40;99.90
22192;DHT22;11261;52.456;10.850;2023-04-29T01:48:45;12.40;99.90
22192;DHT22;11261;52.456;10.850;2023-04-29T01:51:14;12.40;99.90
22192;DHT22;11261;52.456;10.850;2023-04-29T01:53:42;12.40;99.90
22192;DHT22;11261;52.456;10.850;2023-04-29T01:56:10;12.40;99.90
22192;DHT22;11261;52.456;10.850;2023-04-29T01:58:40;12.40;99.90
22192;DHT22;11261;52.456;10.850;2023-04-29T02:01:08;12.40;99.90
22192;DHT22;11261;52.456;10.850;2023-04-29T02:03:37;12.40;99.90
22192;DHT22;11261;52.456;10.850;2023-04-29T02:06:06;12.40;99.90
22192;DHT22;11261;52.456;10.850;2023-04-29T02:08:34;12.40;99.90
22192;DHT22;11261;52.456;10.850;2023-04-29T02:11:03;12.40;99.90
22192;DHT22;11261;52.456;10.850;2023-04-29T02:16:09;12.30;99.90
22192;DHT22;11261;52.456;10.850;2023-04-29T02:18:37;12.30;99.90
22192;DHT22;11261;52.456;10.850;2023-04-29T02:21:06;12.30;99.90
22192;DHT22;11261;52.456;10.850;2023-04-29T02:23:35;12.30;99.90
22192;DHT22;11261;52.456;10.850;2023-04-29T02:26:03;12.30;99.90
22192;DHT22;11261;52.456;10.850;2023-04-29T02:28:33;12.30;99.90
22192;DHT22;11261;52.456;10.850;2023-04-29T02:31:01;12.30;99.90
22192;DHT22;11261;52.456;10.850;2023-04-29T02:33:31;12.30;99.90
22192;DHT22;11261;52.456;10.850;2023-04-29T02:36:00;12.30;99.90
22192;DHT22;11261;52.456;10.850;2023-04-29T02:38:28;12.20;99.90
22192;DHT22;11261;52.456;10.850;2023-04-29T02:40:56;12.20;99.90
22192;DHT22;11261;52.456;10.850;2023-04-29T02:43:25;12.20;99.90
22192;DHT22;11261;52.456;10.850;2023-04-29T02:45:56;12.20;99.90
22192;DHT22;11261;52.456;10.850;2023-04-29T02:48:25;12.10;99.90
22192;DHT22;11261;52.456;10.850;2023-04-29T02:50:54;12.20;99.90
22192;DHT22;11261;52.456;10.850;2023-04-29T02:53:23;12.10;99.90
22192;DHT22;11261;52.456;10.850;2023-04-29T02:55:51;12.10;99.90
22192;DHT22;11261;52.456;10.850;2023-04-29T02:58:19;12.10;99.90
22192;DHT22;11261;52.456;10.850;2023-04-29T03:00:47;12.00;99.90
22192;DHT22;11261;52.456;10.850;2023-04-29T03:03:15;12.00;99.90
22192;DHT22;11261;52.456;10.850;2023-04-29T03:05:44;12.00;99.90
22192;DHT22;11261;52.456;10.850;2023-04-29T03:08:14;12.00;99.90
22192;DHT22;11261;52.456;10.850;2023-04-29T03:10:42;12.00;99.90
22192;DHT22;11261;52.456;10.850;2023-04-29T03:13:12;12.10;99.90
22192;DHT22;11261;52.456;10.850;2023-04-29T03:15:40;12.00;99.90
22192;DHT22;11261;52.456;10.850;2023-04-29T03:18:10;12.00;99.90
22192;DHT22;11261;52.456;10.850;2023-04-29T03:20:38;12.00;99.90
22192;DHT22;11261;52.456;10.850;2023-04-29T03:23:06;11.90;99.90
22192;DHT22;11261;52.456;10.850;2023-04-29T03:25:36;11.90;99.90
22192;DHT22;11261;52.456;10.850;2023-04-29T03:28:04;11.90;99.90
22192;DHT22;11261;52.456;10.850;2023-04-29T03:30:32;11.90;99.90
22192;DHT22;11261;52.456;10.850;2023-04-29T03:33:01;11.80;99.90
22192;DHT22;11261;52.456;10.850;2023-04-29T03:35:29;11.70;99.90
22192;DHT22;11261;52.456;10.850;2023-04-29T03:37:58;11.90;99.90
22192;DHT22;11261;52.456;10.850;2023-04-29T03:40:26;11.70;99.90
22192;DHT22;11261;52.456;10.850;2023-04-29T03:42:56;11.80;99.90
22192;DHT22;11261;52.456;10.850;2023-04-29T03:45:24;11.70;99.90
22192;DHT22;11261;52.456;10.850;2023-04-29T03:47:53;11.70;99.90
22192;DHT22;11261;52.456;10.850;2023-04-29T03:50:22;11.70;99.90
22192;DHT22;11261;52.456;10.850;2023-04-29T03:52:51;11.80;99.90
22192;DHT22;11261;52.456;10.850;2023-04-29T03:55:19;11.70;99.90
22192;DHT22;11261;52.456;10.850;2023-04-29T03:57:48;11.70;99.90
22192;DHT22;11261;52.456;10.850;2023-04-29T04:00:17;11.60;99.90
22192;DHT22;11261;52.456;10.850;2023-04-29T04:02:46;11.50;99.90
22192;DHT22;11261;52.456;10.850;2023-04-29T04:05:14;11.50;99.90
22192;DHT22;11261;52.456;10.850;2023-04-29T04:07:45;11.50;99.90
22192;DHT22;11261;52.456;10.850;2023-04-29T04:10:13;11.50;99.90
22192;DHT22;11261;52.456;10.850;2023-04-29T04:12:42;11.50;99.90
22192;DHT22;11261;52.456;10.850;2023-04-29T04:15:10;11.60;99.90
22192;DHT22;11261;52.456;10.850;2023-04-29T04:17:40;11.40;99.90
22192;DHT22;11261;52.456;10.850;2023-04-29T04:20:09;11.40;99.90
22192;DHT22;11261;52.456;10.850;2023-04-29T04:22:37;11.40;99.90
22192;DHT22;11261;52.456;10.850;2023-04-29T04:25:06;11.40;99.90
22192;DHT22;11261;52.456;10.850;2023-04-29T04:27:35;11.30;99.90
22192;DHT22;11261;52.456;10.850;2023-04-29T04:30:04;11.30;99.90
22192;DHT22;11261;52.456;10.850;2023-04-29T04:32:33;11.20;99.90
22192;DHT22;11261;52.456;10.850;2023-04-29T04:35:03;11.20;99.90
22192;DHT22;11261;52.456;10.850;2023-04-29T04:37:32;11.10;99.90
22192;DHT22;11261;52.456;10.850;2023-04-29T04:40:00;11.20;99.90
22192;DHT22;11261;52.456;10.850;2023-04-29T04:42:29;11.30;99.90
22192;DHT22;11261;52.456;10.850;2023-04-29T04:44:57;11.20;99.90
22192;DHT22;11261;52.456;10.850;2023-04-29T04:47:25;11.30;99.90
22192;DHT22;11261;52.456;10.850;2023-04-29T04:49:53;11.10;99.90
22192;DHT22;11261;52.456;10.850;2023-04-29T04:52:24;11.00;99.90
22192;DHT22;11261;52.456;10.850;2023-04-29T04:54:52;11.10;99.90
22192;DHT22;11261;52.456;10.850;2023-04-29T04:57:20;10.90;99.90
22192;DHT22;11261;52.456;10.850;2023-04-29T04:59:48;10.90;99.90
22192;DHT22;11261;52.456;10.850;2023-04-29T05:02:17;10.80;99.90
22192;DHT22;11261;52.456;10.850;2023-04-29T05:04:45;10.90;99.90
22192;DHT22;11261;52.456;10.850;2023-04-29T05:07:13;10.90;99.90
22192;DHT22;11261;52.456;10.850;2023-04-29T05:09:43;10.90;99.90
22192;DHT22;11261;52.456;10.850;2023-04-29T05:12:12;11.00;99.90
22192;DHT22;11261;52.456;10.850;2023-04-29T05:14:40;10.90;99.90
22192;DHT22;11261;52.456;10.850;2023-04-29T05:17:08;10.90;99.90
22192;DHT22;11261;52.456;10.850;2023-04-29T05:19:37;10.80;99.90
22192;DHT22;11261;52.456;10.850;2023-04-29T05:22:05;10.90;99.90
22192;DHT22;11261;52.456;10.850;2023-04-29T05:24:33;10.80;99.90
22192;DHT22;11261;52.456;10.850;2023-04-29T05:27:03;10.80;99.90
22192;DHT22;11261;52.456;10.850;2023-04-29T05:29:31;10.80;99.90
22192;DHT22;11261;52.456;10.850;2023-04-29T05:32:00;10.70;99.90
22192;DHT22;11261;52.456;10.850;2023-04-29T05:34:28;10.80;99.90
22192;DHT22;11261;52.456;10.850;2023-04-29T05:36:56;10.80;99.90
22192;DHT22;11261;52.456;10.850;2023-04-29T05:39:25;10.70;99.90
22192;DHT22;11261;52.456;10.850;2023-04-29T05:41:53;10.70;99.90
22192;DHT22;11261;52.456;10.850;2023-04-29T05:44:22;10.60;99.90
22192;DHT22;11261;52.456;10.850;2023-04-29T05:46:51;10.70;99.90
22192;DHT22;11261;52.456;10.850;2023-04-29T05:49:19;10.70;99.90
22192;DHT22;11261;52.456;10.850;2023-04-29T05:51:47;10.80;99.90
22192;DHT22;11261;52.456;10.850;2023-04-29T05:54:16;10.80;99.90
22192;DHT22;11261;52.456;10.850;2023-04-29T05:56:44;10.70;99.90
22192;DHT22;11261;52.456;10.850;2023-04-29T05:59:12;10.80;99.90
22192;DHT22;11261;52.456;10.850;2023-04-29T06:01:42;10.70;99.90
22192;DHT22;11261;52.456;10.850;2023-04-29T06:04:10;10.70;99.90
22192;DHT22;11261;52.456;10.850;2023-04-29T06:06:39;10.90;99.90
22192;DHT22;11261;52.456;10.850;2023-04-29T06:09:07;10.80;99.90
22192;DHT22;11261;52.456;10.850;2023-04-29T06:11:52;10.80;99.90
22192;DHT22;11261;52.456;10.850;2023-04-29T06:14:21;10.80;99.90
22192;DHT22;11261;52.456;10.850;2023-04-29T06:16:50;10.80;99.90
22192;DHT22;11261;52.456;10.850;2023-04-29T06:19:19;10.90;99.90
22192;DHT22;11261;52.456;10.850;2023-04-29T06:21:47;10.70;99.90
22192;DHT22;11261;52.456;10.850;2023-04-29T06:24:16;10.80;99.90
22192;DHT22;11261;52.456;10.850;2023-04-29T06:26:44;10.80;99.90
22192;DHT22;11261;52.456;10.850;2023-04-29T06:29:12;10.80;99.90
22192;DHT22;11261;52.456;10.850;2023-04-29T06:31:40;10.70;99.90
22192;DHT22;11261;52.456;10.850;2023-04-29T06:34:10;10.60;99.90
22192;DHT22;11261;52.456;10.850;2023-04-29T06:36:38;10.60;99.90
22192;DHT22;11261;52.456;10.850;2023-04-29T06:39:07;10.70;99.90
22192;DHT22;11261;52.456;10.850;2023-04-29T06:41:35;10.60;99.90
22192;DHT22;11261;52.456;10.850;2023-04-29T06:44:03;10.70;99.90
22192;DHT22;11261;52.456;10.850;2023-04-29T06:46:31;10.80;99.90
22192;DHT22;11261;52.456;10.850;2023-04-29T06:49:00;10.80;99.90
22192;DHT22;11261;52.456;10.850;2023-04-29T06:51:30;10.80;99.90
22192;DHT22;11261;52.456;10.850;2023-04-29T06:53:58;10.80;99.90
22192;DHT22;11261;52.456;10.850;2023-04-29T06:56:27;10.90;99.90
22192;DHT22;11261;52.456;10.850;2023-04-29T06:58:55;11.00;99.90
22192;DHT22;11261;52.456;10.850;2023-04-29T07:01:23;11.00;99.90
22192;DHT22;11261;52.456;10.850;2023-04-29T07:03:52;11.00;99.90
22192;DHT22;11261;52.456;10.850;2023-04-29T07:06:20;10.90;99.90
22192;DHT22;11261;52.456;10.850;2023-04-29T07:08:49;11.10;99.90
22192;DHT22;11261;52.456;10.850;2023-04-29T07:11:20;11.10;99.90
22192;DHT22;11261;52.456;10.850;2023-04-29T07:13:51;11.00;99.90
22192;DHT22;11261;52.456;10.850;2023-04-29T07:16:20;10.90;99.90
22192;DHT22;11261;52.456;10.850;2023-04-29T07:18:52;11.10;99.90
22192;DHT22;11261;52.456;10.850;2023-04-29T07:21:20;11.00;99.90
22192;DHT22;11261;52.456;10.850;2023-04-29T07:23:50;11.20;99.90
22192;DHT22;11261;52.456;10.850;2023-04-29T07:26:18;11.30;99.90
22192;DHT22;11261;52.456;10.850;2023-04-29T07:28:47;11.40;99.90
22192;DHT22;11261;52.456;10.850;2023-04-29T07:31:16;11.50;99.90
22192;DHT22;11261;52.456;10.850;2023-04-29T07:33:44;11.70;99.90
22192;DHT22;11261;52.456;10.850;2023-04-29T07:36:13;12.00;99.90
22192;DHT22;11261;52.456;10.850;2023-04-29T07:38:41;12.20;99.90
22192;DHT22;11261;52.456;10.850;2023-04-29T07:41:11;12.30;99.90
22192;DHT22;11261;52.456;10.850;2023-04-29T07:43:39;12.10;99.90
22192;DHT22;11261;52.456;10.850;2023-04-29T07:46:08;12.10;99.90
22192;DHT22;11261;52.456;10.850;2023-04-29T07:48:37;12.20;99.90
22192;DHT22;11261;52.456;10.850;2023-04-29T07:51:05;12.20;99.90
22192;DHT22;11261;52.456;10.850;2023-04-29T07:53:34;11.90;99.90
22192;DHT22;11261;52.456;10.850;2023-04-29T07:56:04;12.00;99.90
22192;DHT22;11261;52.456;10.850;2023-04-29T07:58:35;12.00;99.90
22192;DHT22;11261;52.456;10.850;2023-04-29T08:01:06;12.10;99.90
22192;DHT22;11261;52.456;10.850;2023-04-29T08:03:36;12.10;99.90
22192;DHT22;11261;52.456;10.850;2023-04-29T08:06:07;12.00;99.90
22192;DHT22;11261;52.456;10.850;2023-04-29T08:08:36;12.20;99.90
22192;DHT22;11261;52.456;10.850;2023-04-29T08:11:04;12.00;99.90
22192;DHT22;11261;52.456;10.850;2023-04-29T08:13:34;12.00;99.90
22192;DHT22;11261;52.456;10.850;2023-04-29T08:16:02;12.30;99.90
22192;DHT22;11261;52.456;10.850;2023-04-29T08:18:31;12.50;99.90
22192;DHT22;11261;52.456;10.850;2023-04-29T08:20:59;12.50;99.90
22192;DHT22;11261;52.456;10.850;2023-04-29T08:23:27;12.70;99.90
22192;DHT22;11261;52.456;10.850;2023-04-29T08:25:55;13.00;99.90
22192;DHT22;11261;52.456;10.850;2023-04-29T08:28:23;13.30;99.90
22192;DHT22;11261;52.456;10.850;2023-04-29T08:30:53;13.30;99.90
22192;DHT22;11261;52.456;10.850;2023-04-29T08:33:22;13.50;99.90
22192;DHT22;11261;52.456;10.850;2023-04-29T08:35:57;13.40;99.90
22192;DHT22;11261;52.456;10.850;2023-04-29T08:38:26;13.30;99.90
22192;DHT22;11261;52.456;10.850;2023-04-29T08:40:54;13.30;99.90
22192;DHT22;11261;52.456;10.850;2023-04-29T08:43:22;13.40;99.90
22192;DHT22;11261;52.456;10.850;2023-04-29T08:45:52;13.20;99.90
22192;DHT22;11261;52.456;10.850;2023-04-29T08:48:22;13.30;99.90
22192;DHT22;11261;52.456;10.850;2023-04-29T08:50:50;13.20;99.90
22192;DHT22;11261;52.456;10.850;2023-04-29T08:53:19;13.20;99.90
22192;DHT22;11261;52.456;10.850;2023-04-29T08:55:48;13.20;99.90
22192;DHT22;11261;52.456;10.850;2023-04-29T08:58:16;13.30;99.90
22192;DHT22;11261;52.456;10.850;2023-04-29T09:00:45;13.40;99.90
22192;DHT22;11261;52.456;10.850;2023-04-29T09:03:16;13.40;99.90
22192;DHT22;11261;52.456;10.850;2023-04-29T09:05:53;13.60;99.90
22192;DHT22;11261;52.456;10.850;2023-04-29T09:08:23;13.60;99.90
22192;DHT22;11261;52.456;10.850;2023-04-29T09:10:52;13.80;99.90
22192;DHT22;11261;52.456;10.850;2023-04-29T09:13:23;13.80;99.90
22192;DHT22;11261;52.456;10.850;2023-04-29T09:15:52;13.80;99.90
22192;DHT22;11261;52.456;10.850;2023-04-29T09:18:41;13.70;99.90
22192;DHT22;11261;52.456;10.850;2023-04-29T09:21:17;13.60;99.90
22192;DHT22;11261;52.456;10.850;2023-04-29T09:23:50;13.50;99.90
22192;DHT22;11261;52.456;10.850;2023-04-29T09:26:18;13.70;99.90
22192;DHT22;11261;52.456;10.850;2023-04-29T09:28:47;14.00;99.90
22192;DHT22;11261;52.456;10.850;2023-04-29T09:31:26;14.10;99.90
22192;DHT22;11261;52.456;10.850;2023-04-29T09:33:56;14.50;99.90
22192;DHT22;11261;52.456;10.850;2023-04-29T09:36:42;15.00;99.90
22192;DHT22;11261;52.456;10.850;2023-04-29T09:39:13;15.20;99.90
22192;DHT22;11261;52.456;10.850;2023-04-29T09:41:57;15.10;99.90
22192;DHT22;11261;52.456;10.850;2023-04-29T09:44:30;15.00;99.90
22192;DHT22;11261;52.456;10.850;2023-04-29T09:47:01;15.00;99.90
22192;DHT22;11261;52.456;10.850;2023-04-29T09:49:33;15.00;99.90
22192;DHT22;11261;52.456;10.850;2023-04-29T09:52:04;15.00;99.90
22192;DHT22;11261;52.456;10.850;2023-04-29T09:54:35;15.30;99.90
22192;DHT22;11261;52.456;10.850;2023-04-29T09:57:05;15.40;99.90
22192;DHT22;11261;52.456;10.850;2023-04-29T09:59:35;15.60;99.90
22192;DHT22;11261;52.456;10.850;2023-04-29T10:02:09;15.50;99.90
22192;DHT22;11261;52.456;10.850;2023-04-29T10:04:44;15.70;99.90
22192;DHT22;11261;52.456;10.850;2023-04-29T10:07:14;15.70;99.90
22192;DHT22;11261;52.456;10.850;2023-04-29T10:09:44;15.80;99.90
22192;DHT22;11261;52.456;10.850;2023-04-29T10:12:15;15.90;99.90
22192;DHT22;11261;52.456;10.850;2023-04-29T10:17:20;15.70;99.90
22192;DHT22;11261;52.456;10.850;2023-04-29T10:19:57;16.10;99.90
22192;DHT22;11261;52.456;10.850;2023-04-29T10:22:33;16.60;99.90
22192;DHT22;11261;52.456;10.850;2023-04-29T10:25:04;17.10;99.90
22192;DHT22;11261;52.456;10.850;2023-04-29T10:27:36;17.10;99.90
22192;DHT22;11261;52.456;10.850;2023-04-29T10:30:06;17.60;99.90
22192;DHT22;11261;52.456;10.850;2023-04-29T10:32:39;17.80;99.90
22192;DHT22;11261;52.456;10.850;2023-04-29T10:35:19;18.10;99.90
22192;DHT22;11261;52.456;10.850;2023-04-29T10:37:50;18.30;99.90
22192;DHT22;11261;52.456;10.850;2023-04-29T10:40:23;18.30;99.90
22192;DHT22;11261;52.456;10.850;2023-04-29T10:42:54;18.20;99.90
22192;DHT22;11261;52.456;10.850;2023-04-29T10:45:24;17.60;99.90
22192;DHT22;11261;52.456;10.850;2023-04-29T10:48:10;17.50;99.90
22192;DHT22;11261;52.456;10.850;2023-04-29T10:51:02;17.10;99.90
22192;DHT22;11261;52.456;10.850;2023-04-29T10:53:31;17.30;99.90
22192;DHT22;11261;52.456;10.850;2023-04-29T10:56:05;17.30;99.90
22192;DHT22;11261;52.456;10.850;2023-04-29T10:58:44;17.00;99.90
22192;DHT22;11261;52.456;10.850;2023-04-29T11:01:15;17.00;99.90
22192;DHT22;11261;52.456;10.850;2023-04-29T11:04:01;16.70;99.90
22192;DHT22;11261;52.456;10.850;2023-04-29T11:06:40;17.10;99.90
22192;DHT22;11261;52.456;10.850;2023-04-29T11:09:11;17.50;99.90
22192;DHT22;11261;52.456;10.850;2023-04-29T11:11:41;17.60;99.90
22192;DHT22;11261;52.456;10.850;2023-04-29T11:14:13;17.50;99.90
22192;DHT22;11261;52.456;10.850;2023-04-29T11:16:51;17.50;99.90
22192;DHT22;11261;52.456;10.850;2023-04-29T11:19:20;17.30;99.90
22192;DHT22;11261;52.456;10.850;2023-04-29T11:22:07;17.10;99.90
22192;DHT22;11261;52.456;10.850;2023-04-29T11:24:35;17.00;99.90
22192;DHT22;11261;52.456;10.850;2023-04-29T11:27:04;17.10;99.90
22192;DHT22;11261;52.456;10.850;2023-04-29T11:29:32;17.20;99.90
22192;DHT22;11261;52.456;10.850;2023-04-29T11:32:01;17.70;99.90
22192;DHT22;11261;52.456;10.850;2023-04-29T11:34:29;17.80;99.90
22192;DHT22;11261;52.456;10.850;2023-04-29T11:36:59;17.60;99.90
22192;DHT22;11261;52.456;10.850;2023-04-29T11:39:27;17.50;99.90
22192;DHT22;11261;52.456;10.850;2023-04-29T11:42:02;17.40;99.90
22192;DHT22;11261;52.456;10.850;2023-04-29T11:44:33;17.20;99.90
22192;DHT22;11261;52.456;10.850;2023-04-29T11:47:02;17.20;99.90
22192;DHT22;11261;52.456;10.850;2023-04-29T11:49:31;17.00;99.90
22192;DHT22;11261;52.456;10.850;2023-04-29T11:52:00;17.00;99.90
22192;DHT22;11261;52.456;10.850;2023-04-29T11:54:29;17.20;99.90
22192;DHT22;11261;52.456;10.850;2023-04-29T11:56:58;17.30;99.90
22192;DHT22;11261;52.456;10.850;2023-04-29T11:59:28;17.30;99.90
22192;DHT22;11261;52.456;10.850;2023-04-29T12:01:58;17.40;99.90
22192;DHT22;11261;52.456;10.850;2023-04-29T12:04:27;17.80;99.90
22192;DHT22;11261;52.456;10.850;2023-04-29T12:06:56;18.10;99.90
22192;DHT22;11261;52.456;10.850;2023-04-29T12:09:26;18.00;99.90
22192;DHT22;11261;52.456;10.850;2023-04-29T12:11:55;17.80;99.90
22192;DHT22;11261;52.456;10.850;2023-04-29T12:14:23;17.80;99.90
22192;DHT22;11261;52.456;10.850;2023-04-29T12:16:51;18.10;99.90
22192;DHT22;11261;52.456;10.850;2023-04-29T12:19:20;17.80;99.90
22192;DHT22;11261;52.456;10.850;2023-04-29T12:21:48;17.50;99.90
22192;DHT22;11261;52.456;10.850;2023-04-29T12:24:19;17.50;99.90
22192;DHT22;11261;52.456;10.850;2023-04-29T12:26:50;17.90;99.90
22192;DHT22;11261;52.456;10.850;2023-04-29T12:29:20;18.40;99.90
22192;DHT22;11261;52.456;10.850;2023-04-29T12:31:49;18.40;99.90
22192;DHT22;11261;52.456;10.850;2023-04-29T12:34:24;18.40;99.80
22192;DHT22;11261;52.456;10.850;2023-04-29T12:36:54;18.50;99.90
22192;DHT22;11261;52.456;10.850;2023-04-29T12:39:24;17.90;99.90
22192;DHT22;11261;52.456;10.850;2023-04-29T12:41:57;18.10;99.90
22192;DHT22;11261;52.456;10.850;2023-04-29T12:44:26;18.00;99.90
22192;DHT22;11261;52.456;10.850;2023-04-29T12:46:54;18.00;99.90
22192;DHT22;11261;52.456;10.850;2023-04-29T12:49:24;17.60;99.90
22192;DHT22;11261;52.456;10.850;2023-04-29T12:51:52;17.70;99.90
22192;DHT22;11261;52.456;10.850;2023-04-29T12:54:20;18.30;99.90
22192;DHT22;11261;52.456;10.850;2023-04-29T12:56:49;18.70;99.90
22192;DHT22;11261;52.456;10.850;2023-04-29T12:59:18;18.50;99.90
22192;DHT22;11261;52.456;10.850;2023-04-29T13:01:46;18.10;99.90
22192;DHT22;11261;52.456;10.850;2023-04-29T13:04:15;18.10;99.90
22192;DHT22;11261;52.456;10.850;2023-04-29T13:06:43;18.30;99.90
22192;DHT22;11261;52.456;10.850;2023-04-29T13:09:11;18.30;99.90
22192;DHT22;11261;52.456;10.850;2023-04-29T13:11:45;18.30;99.90
22192;DHT22;11261;52.456;10.850;2023-04-29T13:14:13;18.10;99.90
22192;DHT22;11261;52.456;10.850;2023-04-29T13:16:44;18.10;99.90
22192;DHT22;11261;52.456;10.850;2023-04-29T13:19:13;18.10;99.00
22192;DHT22;11261;52.456;10.850;2023-04-29T13:22:01;18.20;99.90
22192;DHT22;11261;52.456;10.850;2023-04-29T13:24:29;18.20;99.90
22192;DHT22;11261;52.456;10.850;2023-04-29T13:26:58;17.90;99.90
22192;DHT22;11261;52.456;10.850;2023-04-29T13:29:28;18.20;99.90
22192;DHT22;11261;52.456;10.850;2023-04-29T13:31:58;18.00;99.90
22192;DHT22;11261;52.456;10.850;2023-04-29T13:34:27;18.10;99.90
22192;DHT22;11261;52.456;10.850;2023-04-29T13:36:55;17.80;99.90
22192;DHT22;11261;52.456;10.850;2023-04-29T13:39:24;17.80;99.90
22192;DHT22;11261;52.456;10.850;2023-04-29T13:41:53;17.70;99.90
22192;DHT22;11261;52.456;10.850;2023-04-29T13:44:25;17.90;99.90
22192;DHT22;11261;52.456;10.850;2023-04-29T13:47:15;17.90;99.90
22192;DHT22;11261;52.456;10.850;2023-04-29T13:49:51;18.00;99.90
22192;DHT22;11261;52.456;10.850;2023-04-29T13:52:22;17.80;99.90
22192;DHT22;11261;52.456;10.850;2023-04-29T13:54:53;17.70;99.90
22192;DHT22;11261;52.456;10.850;2023-04-29T13:57:42;17.40;99.90
22192;DHT22;11261;52.456;10.850;2023-04-29T14:00:30;17.50;99.90
22192;DHT22;11261;52.456;10.850;2023-04-29T14:03:20;17.30;99.90
22192;DHT22;11261;52.456;10.850;2023-04-29T14:05:48;17.20;99.90
22192;DHT22;11261;52.456;10.850;2023-04-29T14:08:17;17.40;99.90
22192;DHT22;11261;52.456;10.850;2023-04-29T14:10:45;17.60;99.90
22192;DHT22;11261;52.456;10.850;2023-04-29T14:13:14;17.30;99.90
22192;DHT22;11261;52.456;10.850;2023-04-29T14:15:43;17.40;99.90
22192;DHT22;11261;52.456;10.850;2023-04-29T14:18:12;17.80;99.90
22192;DHT22;11261;52.456;10.850;2023-04-29T14:20:42;17.70;99.90
22192;DHT22;11261;52.456;10.850;2023-04-29T14:23:10;17.60;99.90
22192;DHT22;11261;52.456;10.850;2023-04-29T14:25:38;17.60;99.90
22192;DHT22;11261;52.456;10.850;2023-04-29T14:28:06;17.80;99.90
22192;DHT22;11261;52.456;10.850;2023-04-29T14:30:34;18.00;99.90
22192;DHT22;11261;52.456;10.850;2023-04-29T14:33:03;17.80;98.10
22192;DHT22;11261;52.456;10.850;2023-04-29T14:35:32;17.80;99.90
22192;DHT22;11261;52.456;10.850;2023-04-29T14:38:01;17.80;99.90
22192;DHT22;11261;52.456;10.850;2023-04-29T14:40:29;18.00;99.90
22192;DHT22;11261;52.456;10.850;2023-04-29T14:42:58;17.90;99.90
22192;DHT22;11261;52.456;10.850;2023-04-29T14:45:27;17.70;99.90
22192;DHT22;11261;52.456;10.850;2023-04-29T14:47:55;17.80;99.90
22192;DHT22;11261;52.456;10.850;2023-04-29T14:50:23;17.60;99.90
22192;DHT22;11261;52.456;10.850;2023-04-29T14:52:51;17.60;99.90
22192;DHT22;11261;52.456;10.850;2023-04-29T14:55:21;17.30;99.90
22192;DHT22;11261;52.456;10.850;2023-04-29T14:57:49;17.30;99.90
22192;DHT22;11261;52.456;10.850;2023-04-29T15:00:17;17.10;99.90
22192;DHT22;11261;52.456;10.850;2023-04-29T15:02:45;17.20;99.90
22192;DHT22;11261;52.456;10.850;2023-04-29T15:05:16;17.20;99.90
22192;DHT22;11261;52.456;10.850;2023-04-29T15:07:45;17.10;99.80
22192;DHT22;11261;52.456;10.850;2023-04-29T15:10:13;17.20;99.90
22192;DHT22;11261;52.456;10.850;2023-04-29T15:12:43;17.30;99.90
22192;DHT22;11261;52.456;10.850;2023-04-29T15:15:12;17.30;99.90
22192;DHT22;11261;52.456;10.850;2023-04-29T15:17:40;17.30;99.90
22192;DHT22;11261;52.456;10.850;2023-04-29T15:20:09;17.30;99.90
22192;DHT22;11261;52.456;10.850;2023-04-29T15:22:38;17.30;99.90
22192;DHT22;11261;52.456;10.850;2023-04-29T15:25:07;17.30;99.80
22192;DHT22;11261;52.456;10.850;2023-04-29T15:27:36;17.50;99.90
22192;DHT22;11261;52.456;10.850;2023-04-29T15:30:07;17.50;99.90
22192;DHT22;11261;52.456;10.850;2023-04-29T15:32:35;17.40;99.90
22192;DHT22;11261;52.456;10.850;2023-04-29T15:35:04;17.10;99.90
22192;DHT22;11261;52.456;10.850;2023-04-29T15:37:33;16.90;99.90